sensor_id;sensor_type;location;lat;lon;timestamp;pressure;altitude;pressure_sealevel;temperature;humidity
63715;BME280;49858;48.956;9.076;2023-01-31T00:01:48;99691.03;;;2.56;100.00
63715;BME280;49858;48.956;9.076;2023-01-31T00:04:17;99682.03;;;2.61;100.00
63715;BME280;49858;48.956;9.076;2023-01-31T00:06:45;99676.53;;;2.76;100.00
63715;BME280;49858;48.956;9.076;2023-01-31T00:09:19;99674.94;;;2.70;100.00
63715;BME280;49858;48.956;9.076;2023-01-31T00:11:47;99670.88;;;2.67;100.00
63715;BME280;49858;48.956;9.076;2023-01-31T00:14:19;99674.75;;;2.56;100.00
63715;BME280;49858;48.956;9.076;2023-01-31T00:16:47;99669.50;;;2.70;100.00
63715;BME280;49858;48.956;9.076;2023-01-31T00:19:20;99663.78;;;2.71;100.00
63715;BME280;49858;48.956;9.076;2023-01-31T00:21:48;99664.84;;;2.75;100.00
63715;BME280;49858;48.956;9.076;2023-01-31T00:24:16;99665.88;;;2.85;100.00
63715;BME280;49858;48.956;9.076;2023-01-31T00:26:46;99662.97;;;3.10;100.00
63715;BME280;49858;48.956;9.076;2023-01-31T00:29:24;99664.84;;;3.15;100.00
63715;BME280;49858;48.956;9.076;2023-01-31T00:31:52;99655.53;;;2.92;100.00
63715;BME280;49858;48.956;9.076;2023-01-31T00:34:22;99654.50;;;2.83;100.00
63715;BME280;49858;48.956;9.076;2023-01-31T00:36:50;99643.44;;;3.08;100.00
63715;BME280;49858;48.956;9.076;2023-01-31T00:39:20;99657.66;;;2.95;100.00
63715;BME280;49858;48.956;9.076;2023-01-31T00:41:48;99654.34;;;3.03;100.00
63715;BME280;49858;48.956;9.076;2023-01-31T00:44:17;99648.91;;;3.03;100.00
63715;BME280;49858;48.956;9.076;2023-01-31T00:46:45;99649.25;;;2.91;100.00
63715;BME280;49858;48.956;9.076;2023-01-31T00:49:13;99653.31;;;2.94;100.00
63715;BME280;49858;48.956;9.076;2023-01-31T00:51:42;99653.75;;;3.11;100.00
63715;BME280;49858;48.956;9.076;2023-01-31T00:54:10;99656.03;;;2.94;100.00
63715;BME280;49858;48.956;9.076;2023-01-31T00:56:39;99656.00;;;2.99;100.00
63715;BME280;49858;48.956;9.076;2023-01-31T00:59:07;99648.00;;;2.78;100.00
63715;BME280;49858;48.956;9.076;2023-01-31T01:01:36;99656.38;;;2.82;100.00
63715;BME280;49858;48.956;9.076;2023-01-31T01:04:04;99658.34;;;2.71;100.00
63715;BME280;49858;48.956;9.076;2023-01-31T01:06:33;99665.47;;;2.62;100.00
63715;BME280;49858;48.956;9.076;2023-01-31T01:09:05;99652.41;;;2.69;100.00
63715;BME280;49858;48.956;9.076;2023-01-31T01:11:33;99655.03;;;2.79;100.00
63715;BME280;49858;48.956;9.076;2023-01-31T01:14:02;99662.44;;;2.69;100.00
63715;BME280;49858;48.956;9.076;2023-01-31T01:16:35;99665.00;;;2.50;100.00
63715;BME280;49858;48.956;9.076;2023-01-31T01:19:05;99670.38;;;2.60;100.00
63715;BME280;49858;48.956;9.076;2023-01-31T01:21:33;99674.22;;;2.49;100.00
63715;BME280;49858;48.956;9.076;2023-01-31T01:24:07;99670.41;;;2.55;100.00
63715;BME280;49858;48.956;9.076;2023-01-31T01:26:38;99659.50;;;2.60;100.00
63715;BME280;49858;48.956;9.076;2023-01-31T01:29:06;99656.81;;;2.55;100.00
63715;BME280;49858;48.956;9.076;2023-01-31T01:31:36;99658.19;;;2.52;100.00
63715;BME280;49858;48.956;9.076;2023-01-31T01:34:05;99655.13;;;2.69;100.00
63715;BME280;49858;48.956;9.076;2023-01-31T01:36:36;99661.53;;;2.29;100.00
63715;BME280;49858;48.956;9.076;2023-01-31T01:39:09;99655.78;;;2.46;100.00
63715;BME280;49858;48.956;9.076;2023-01-31T01:41:41;99640.19;;;2.62;100.00
63715;BME280;49858;48.956;9.076;2023-01-31T01:44:47;99643.69;;;2.67;100.00
63715;BME280;49858;48.956;9.076;2023-01-31T01:47:33;99654.34;;;2.64;100.00
63715;BME280;49858;48.956;9.076;2023-01-31T01:50:06;99669.31;;;2.56;100.00
63715;BME280;49858;48.956;9.076;2023-01-31T01:52:41;99663.53;;;2.68;100.00
63715;BME280;49858;48.956;9.076;2023-01-31T01:55:18;99671.16;;;2.66;100.00
63715;BME280;49858;48.956;9.076;2023-01-31T01:57:51;99668.97;;;2.63;100.00
63715;BME280;49858;48.956;9.076;2023-01-31T02:00:22;99668.22;;;2.52;100.00
63715;BME280;49858;48.956;9.076;2023-01-31T02:02:52;99655.19;;;2.59;100.00
63715;BME280;49858;48.956;9.076;2023-01-31T02:05:27;99657.31;;;2.62;100.00
63715;BME280;49858;48.956;9.076;2023-01-31T02:07:59;99665.16;;;2.69;100.00
63715;BME280;49858;48.956;9.076;2023-01-31T02:10:30;99670.03;;;2.72;100.00
63715;BME280;49858;48.956;9.076;2023-01-31T02:13:00;99680.06;;;2.71;100.00
63715;BME280;49858;48.956;9.076;2023-01-31T02:15:29;99680.44;;;2.60;100.00
63715;BME280;49858;48.956;9.076;2023-01-31T02:17:58;99688.59;;;2.54;100.00
63715;BME280;49858;48.956;9.076;2023-01-31T02:20:56;99698.41;;;2.45;100.00
63715;BME280;49858;48.956;9.076;2023-01-31T02:26:45;99699.50;;;2.44;100.00
63715;BME280;49858;48.956;9.076;2023-01-31T02:32:44;99697.63;;;2.45;100.00
63715;BME280;49858;48.956;9.076;2023-01-31T02:35:23;99704.06;;;2.59;100.00
63715;BME280;49858;48.956;9.076;2023-01-31T02:38:11;99704.94;;;2.39;100.00
63715;BME280;49858;48.956;9.076;2023-01-31T02:40:49;99710.94;;;2.41;100.00
63715;BME280;49858;48.956;9.076;2023-01-31T02:43:20;99706.31;;;2.37;100.00
63715;BME280;49858;48.956;9.076;2023-01-31T02:45:57;99716.88;;;2.43;100.00
63715;BME280;49858;48.956;9.076;2023-01-31T02:48:34;99713.91;;;2.35;100.00
63715;BME280;49858;48.956;9.076;2023-01-31T02:51:12;99720.97;;;2.46;100.00
63715;BME280;49858;48.956;9.076;2023-01-31T02:53:44;99715.53;;;2.46;100.00
63715;BME280;49858;48.956;9.076;2023-01-31T02:56:18;99720.97;;;2.46;100.00
63715;BME280;49858;48.956;9.076;2023-01-31T02:58:54;99718.25;;;2.41;100.00
63715;BME280;49858;48.956;9.076;2023-01-31T03:01:27;99712.22;;;2.54;100.00
63715;BME280;49858;48.956;9.076;2023-01-31T03:04:03;99732.66;;;2.36;100.00
63715;BME280;49858;48.956;9.076;2023-01-31T03:06:51;99729.16;;;2.36;100.00
63715;BME280;49858;48.956;9.076;2023-01-31T03:09:33;99719.84;;;2.52;100.00
63715;BME280;49858;48.956;9.076;2023-01-31T03:12:25;99715.25;;;2.42;100.00
63715;BME280;49858;48.956;9.076;2023-01-31T03:15:07;99717.47;;;2.40;100.00
63715;BME280;49858;48.956;9.076;2023-01-31T03:17:49;99710.38;;;2.39;100.00
63715;BME280;49858;48.956;9.076;2023-01-31T03:20:24;99715.00;;;2.39;100.00
63715;BME280;49858;48.956;9.076;2023-01-31T03:22:58;99712.84;;;2.30;100.00
63715;BME280;49858;48.956;9.076;2023-01-31T03:25:30;99715.81;;;2.39;100.00
63715;BME280;49858;48.956;9.076;2023-01-31T03:28:05;99713.69;;;2.31;100.00
63715;BME280;49858;48.956;9.076;2023-01-31T03:30:36;99713.09;;;2.39;100.00
63715;BME280;49858;48.956;9.076;2023-01-31T03:33:11;99717.19;;;2.37;100.00
63715;BME280;49858;48.956;9.076;2023-01-31T03:35:46;99711.19;;;2.40;100.00
63715;BME280;49858;48.956;9.076;2023-01-31T03:38:20;99716.63;;;2.40;100.00
63715;BME280;49858;48.956;9.076;2023-01-31T03:40:54;99722.91;;;2.25;100.00
63715;BME280;49858;48.956;9.076;2023-01-31T03:43:30;99724.25;;;2.38;100.00
63715;BME280;49858;48.956;9.076;2023-01-31T03:46:04;99734.56;;;2.36;100.00
63715;BME280;49858;48.956;9.076;2023-01-31T03:48:37;99735.13;;;2.27;100.00
63715;BME280;49858;48.956;9.076;2023-01-31T03:51:13;99724.78;;;2.35;100.00
63715;BME280;49858;48.956;9.076;2023-01-31T03:53:47;99729.97;;;2.31;100.00
63715;BME280;49858;48.956;9.076;2023-01-31T03:56:20;99732.97;;;2.19;100.00
63715;BME280;49858;48.956;9.076;2023-01-31T03:58:55;99737.31;;;2.15;100.00
63715;BME280;49858;48.956;9.076;2023-01-31T04:01:27;99737.28;;;2.25;100.00
63715;BME280;49858;48.956;9.076;2023-01-31T04:04:01;99746.28;;;2.16;100.00
63715;BME280;49858;48.956;9.076;2023-01-31T04:06:33;99752.28;;;2.08;100.00
63715;BME280;49858;48.956;9.076;2023-01-31T04:09:01;99749.25;;;2.19;100.00
63715;BME280;49858;48.956;9.076;2023-01-31T04:11:35;99748.19;;;2.10;100.00
63715;BME280;49858;48.956;9.076;2023-01-31T04:14:04;99741.69;;;2.11;100.00
63715;BME280;49858;48.956;9.076;2023-01-31T04:16:31;99746.06;;;2.07;100.00
63715;BME280;49858;48.956;9.076;2023-01-31T04:18:59;99752.03;;;2.04;100.00
63715;BME280;49858;48.956;9.076;2023-01-31T04:21:27;99757.97;;;2.01;100.00
63715;BME280;49858;48.956;9.076;2023-01-31T04:23:56;99749.88;;;1.91;100.00
63715;BME280;49858;48.956;9.076;2023-01-31T04:26:24;99755.59;;;1.84;100.00
63715;BME280;49858;48.956;9.076;2023-01-31T04:28:52;99759.84;;;2.16;100.00
63715;BME280;49858;48.956;9.076;2023-01-31T04:31:19;99760.41;;;2.13;100.00
63715;BME280;49858;48.956;9.076;2023-01-31T04:33:47;99763.16;;;1.87;100.00
63715;BME280;49858;48.956;9.076;2023-01-31T04:36:15;99760.72;;;1.86;100.00
63715;BME280;49858;48.956;9.076;2023-01-31T04:38:43;99763.97;;;1.98;100.00
63715;BME280;49858;48.956;9.076;2023-01-31T04:41:12;99763.97;;;1.88;100.00
63715;BME280;49858;48.956;9.076;2023-01-31T04:43:40;99765.03;;;1.97;100.00
63715;BME280;49858;48.956;9.076;2023-01-31T04:46:07;99760.72;;;1.96;100.00
63715;BME280;49858;48.956;9.076;2023-01-31T04:48:35;99753.94;;;1.78;100.00
63715;BME280;49858;48.956;9.076;2023-01-31T04:51:04;99752.03;;;1.78;100.00
63715;BME280;49858;48.956;9.076;2023-01-31T04:53:32;99742.28;;;1.77;100.00
63715;BME280;49858;48.956;9.076;2023-01-31T04:56:00;99743.66;;;1.80;100.00
63715;BME280;49858;48.956;9.076;2023-01-31T04:58:29;99751.22;;;1.88;100.00
63715;BME280;49858;48.956;9.076;2023-01-31T05:00:58;99750.69;;;1.86;100.00
63715;BME280;49858;48.956;9.076;2023-01-31T05:03:26;99747.69;;;1.88;100.00
63715;BME280;49858;48.956;9.076;2023-01-31T05:05:53;99748.25;;;1.85;100.00
63715;BME280;49858;48.956;9.076;2023-01-31T05:08:21;99750.66;;;2.01;100.00
63715;BME280;49858;48.956;9.076;2023-01-31T05:10:49;99752.56;;;1.96;100.00
63715;BME280;49858;48.956;9.076;2023-01-31T05:13:16;99752.03;;;2.04;100.00
63715;BME280;49858;48.956;9.076;2023-01-31T05:15:48;99742.53;;;1.96;100.00
63715;BME280;49858;48.956;9.076;2023-01-31T05:18:15;99753.66;;;1.90;100.00
63715;BME280;49858;48.956;9.076;2023-01-31T05:20:43;99750.38;;;1.93;100.00
63715;BME280;49858;48.956;9.076;2023-01-31T05:23:11;99742.25;;;1.93;100.00
63715;BME280;49858;48.956;9.076;2023-01-31T05:25:39;99757.47;;;1.78;100.00
63715;BME280;49858;48.956;9.076;2023-01-31T05:28:10;99741.22;;;1.84;100.00
63715;BME280;49858;48.956;9.076;2023-01-31T05:30:42;99741.72;;;1.86;100.00
63715;BME280;49858;48.956;9.076;2023-01-31T05:33:12;99749.34;;;1.89;100.00
63715;BME280;49858;48.956;9.076;2023-01-31T05:35:40;99750.94;;;2.00;100.00
63715;BME280;49858;48.956;9.076;2023-01-31T05:38:08;99747.97;;;1.91;100.00
63715;BME280;49858;48.956;9.076;2023-01-31T05:40:37;99749.88;;;1.86;100.00
63715;BME280;49858;48.956;9.076;2023-01-31T05:43:05;99748.78;;;1.87;100.00
63715;BME280;49858;48.956;9.076;2023-01-31T05:45:33;99751.47;;;2.07;100.00
63715;BME280;49858;48.956;9.076;2023-01-31T05:48:01;99752.00;;;2.09;100.00
63715;BME280;49858;48.956;9.076;2023-01-31T05:50:30;99743.38;;;1.76;100.00
63715;BME280;49858;48.956;9.076;2023-01-31T05:53:07;99751.22;;;1.83;100.00
63715;BME280;49858;48.956;9.076;2023-01-31T05:55:36;99748.53;;;1.58;100.00
63715;BME280;49858;48.956;9.076;2023-01-31T05:58:04;99756.66;;;1.68;100.00
63715;BME280;49858;48.956;9.076;2023-01-31T06:00:32;99747.16;;;1.81;100.00
63715;BME280;49858;48.956;9.076;2023-01-31T06:02:59;99747.72;;;1.57;100.00
63715;BME280;49858;48.956;9.076;2023-01-31T06:05:29;99755.03;;;1.57;100.00
63715;BME280;49858;48.956;9.076;2023-01-31T06:07:57;99759.91;;;1.44;100.00
63715;BME280;49858;48.956;9.076;2023-01-31T06:10:25;99761.53;;;1.40;100.00
63715;BME280;49858;48.956;9.076;2023-01-31T06:12:53;99760.72;;;1.40;100.00
63715;BME280;49858;48.956;9.076;2023-01-31T06:15:21;99756.38;;;1.39;100.00
63715;BME280;49858;48.956;9.076;2023-01-31T06:17:49;99754.75;;;1.27;100.00
63715;BME280;49858;48.956;9.076;2023-01-31T06:20:17;99756.38;;;1.34;100.00
63715;BME280;49858;48.956;9.076;2023-01-31T06:22:46;99767.75;;;1.25;100.00
63715;BME280;49858;48.956;9.076;2023-01-31T06:25:14;99757.19;;;1.29;100.00
63715;BME280;49858;48.956;9.076;2023-01-31T06:27:41;99776.16;;;1.29;100.00
63715;BME280;49858;48.956;9.076;2023-01-31T06:30:10;99765.59;;;1.27;100.00
63715;BME280;49858;48.956;9.076;2023-01-31T06:32:41;99769.63;;;1.20;100.00
63715;BME280;49858;48.956;9.076;2023-01-31T06:35:09;99772.63;;;1.18;100.00
63715;BME280;49858;48.956;9.076;2023-01-31T06:37:37;99766.63;;;1.11;100.00
63715;BME280;49858;48.956;9.076;2023-01-31T06:40:10;99765.88;;;1.46;100.00
63715;BME280;49858;48.956;9.076;2023-01-31T06:42:37;99774.81;;;1.37;100.00
63715;BME280;49858;48.956;9.076;2023-01-31T06:45:06;99773.75;;;1.53;100.00
63715;BME280;49858;48.956;9.076;2023-01-31T06:47:35;99765.59;;;1.27;100.00
63715;BME280;49858;48.956;9.076;2023-01-31T06:50:03;99772.66;;;1.34;100.00
63715;BME280;49858;48.956;9.076;2023-01-31T06:52:32;99768.31;;;1.22;100.00
63715;BME280;49858;48.956;9.076;2023-01-31T06:55:00;99773.16;;;1.20;100.00
63715;BME280;49858;48.956;9.076;2023-01-31T06:57:29;99777.78;;;1.20;100.00
63715;BME280;49858;48.956;9.076;2023-01-31T06:59:57;99775.88;;;1.36;100.00
63715;BME280;49858;48.956;9.076;2023-01-31T07:02:25;99771.03;;;1.43;100.00
63715;BME280;49858;48.956;9.076;2023-01-31T07:04:52;99783.19;;;1.25;100.00
63715;BME280;49858;48.956;9.076;2023-01-31T07:07:21;99774.84;;;1.47;100.00
63715;BME280;49858;48.956;9.076;2023-01-31T07:09:51;99778.06;;;1.44;100.00
63715;BME280;49858;48.956;9.076;2023-01-31T07:12:19;99773.50;;;1.65;100.00
63715;BME280;49858;48.956;9.076;2023-01-31T07:14:48;99769.94;;;1.85;100.00
63715;BME280;49858;48.956;9.076;2023-01-31T07:17:16;99772.13;;;1.72;100.00
63715;BME280;49858;48.956;9.076;2023-01-31T07:19:46;99764.53;;;1.59;100.00
63715;BME280;49858;48.956;9.076;2023-01-31T07:22:14;99775.38;;;1.44;100.00
63715;BME280;49858;48.956;9.076;2023-01-31T07:24:42;99775.38;;;1.54;100.00
63715;BME280;49858;48.956;9.076;2023-01-31T07:27:11;99774.84;;;1.67;100.00
63715;BME280;49858;48.956;9.076;2023-01-31T07:29:39;99782.97;;;1.88;100.00
63715;BME280;49858;48.956;9.076;2023-01-31T07:32:09;99783.50;;;1.90;100.00
63715;BME280;49858;48.956;9.076;2023-01-31T07:34:37;99782.69;;;1.94;100.00
63715;BME280;49858;48.956;9.076;2023-01-31T07:37:04;99786.22;;;1.64;100.00
63715;BME280;49858;48.956;9.076;2023-01-31T07:39:32;99793.53;;;1.48;100.00
63715;BME280;49858;48.956;9.076;2023-01-31T07:42:00;99797.06;;;1.49;100.00
63715;BME280;49858;48.956;9.076;2023-01-31T07:44:28;99793.81;;;1.42;100.00
63715;BME280;49858;48.956;9.076;2023-01-31T07:46:56;99800.84;;;1.27;100.00
63715;BME280;49858;48.956;9.076;2023-01-31T07:49:25;99804.91;;;1.35;100.00
63715;BME280;49858;48.956;9.076;2023-01-31T07:51:53;99804.13;;;1.70;100.00
63715;BME280;49858;48.956;9.076;2023-01-31T07:54:21;99797.63;;;1.56;100.00
63715;BME280;49858;48.956;9.076;2023-01-31T07:56:49;99807.38;;;1.57;100.00
63715;BME280;49858;48.956;9.076;2023-01-31T07:59:16;99818.72;;;1.34;100.00
63715;BME280;49858;48.956;9.076;2023-01-31T08:01:44;99818.50;;;1.76;100.00
63715;BME280;49858;48.956;9.076;2023-01-31T08:04:32;99829.06;;;1.67;100.00
63715;BME280;49858;48.956;9.076;2023-01-31T08:07:00;99817.13;;;1.73;100.00
63715;BME280;49858;48.956;9.076;2023-01-31T08:09:31;99817.41;;;1.97;100.00
63715;BME280;49858;48.956;9.076;2023-01-31T08:11:59;99817.16;;;1.89;100.00
63715;BME280;49858;48.956;9.076;2023-01-31T08:14:26;99826.94;;;1.90;100.00
63715;BME280;49858;48.956;9.076;2023-01-31T08:16:54;99830.72;;;1.84;100.00
63715;BME280;49858;48.956;9.076;2023-01-31T08:19:23;99829.88;;;1.88;100.00
63715;BME280;49858;48.956;9.076;2023-01-31T08:21:53;99832.34;;;2.00;100.00
63715;BME280;49858;48.956;9.076;2023-01-31T08:24:21;99823.66;;;2.08;100.00
63715;BME280;49858;48.956;9.076;2023-01-31T08:26:49;99811.75;;;1.84;100.00
63715;BME280;49858;48.956;9.076;2023-01-31T08:29:17;99810.34;;;2.07;100.00
63715;BME280;49858;48.956;9.076;2023-01-31T08:31:45;99805.16;;;2.25;100.00
63715;BME280;49858;48.956;9.076;2023-01-31T08:34:17;99802.19;;;2.12;100.00
63715;BME280;49858;48.956;9.076;2023-01-31T08:36:44;99804.91;;;2.07;100.00
63715;BME280;49858;48.956;9.076;2023-01-31T08:39:14;99804.66;;;2.08;100.00
63715;BME280;49858;48.956;9.076;2023-01-31T08:41:42;99802.47;;;2.15;100.00
63715;BME280;49858;48.956;9.076;2023-01-31T08:44:11;99800.28;;;2.27;100.00
63715;BME280;49858;48.956;9.076;2023-01-31T08:46:39;99792.66;;;2.35;100.00
63715;BME280;49858;48.956;9.076;2023-01-31T08:49:06;99793.78;;;2.23;100.00
63715;BME280;49858;48.956;9.076;2023-01-31T08:51:36;99796.44;;;2.44;100.00
63715;BME280;49858;48.956;9.076;2023-01-31T08:54:04;99802.97;;;2.38;100.00
63715;BME280;49858;48.956;9.076;2023-01-31T08:56:33;99803.19;;;2.62;100.00
63715;BME280;49858;48.956;9.076;2023-01-31T08:59:01;99796.34;;;2.79;100.00
63715;BME280;49858;48.956;9.076;2023-01-31T09:01:29;99788.38;;;2.98;100.00
63715;BME280;49858;48.956;9.076;2023-01-31T09:03:58;99792.00;;;2.78;100.00
63715;BME280;49858;48.956;9.076;2023-01-31T09:06:26;99794.13;;;2.81;100.00
63715;BME280;49858;48.956;9.076;2023-01-31T09:08:55;99790.78;;;3.00;100.00
63715;BME280;49858;48.956;9.076;2023-01-31T09:11:26;99789.00;;;2.75;100.00
63715;BME280;49858;48.956;9.076;2023-01-31T09:13:57;99780.72;;;3.11;100.00
63715;BME280;49858;48.956;9.076;2023-01-31T09:16:25;99778.25;;;3.09;100.00
63715;BME280;49858;48.956;9.076;2023-01-31T09:18:53;99782.69;;;3.39;100.00
63715;BME280;49858;48.956;9.076;2023-01-31T09:21:22;99766.75;;;3.22;100.00
63715;BME280;49858;48.956;9.076;2023-01-31T09:23:54;99762.81;;;2.99;100.00
63715;BME280;49858;48.956;9.076;2023-01-31T09:26:22;99761.28;;;3.27;100.00
63715;BME280;49858;48.956;9.076;2023-01-31T09:28:50;99775.00;;;3.07;100.00
63715;BME280;49858;48.956;9.076;2023-01-31T09:31:20;99776.91;;;3.06;100.00
63715;BME280;49858;48.956;9.076;2023-01-31T09:33:48;99770.50;;;3.31;100.00
63715;BME280;49858;48.956;9.076;2023-01-31T09:36:17;99775.44;;;3.24;100.00
63715;BME280;49858;48.956;9.076;2023-01-31T09:38:46;99775.28;;;3.11;100.00
63715;BME280;49858;48.956;9.076;2023-01-31T09:41:18;99766.50;;;3.19;100.00
63715;BME280;49858;48.956;9.076;2023-01-31T09:43:53;99768.75;;;3.06;100.00
63715;BME280;49858;48.956;9.076;2023-01-31T09:46:27;99762.31;;;3.37;100.00
63715;BME280;49858;48.956;9.076;2023-01-31T09:49:00;99773.31;;;3.16;100.00
63715;BME280;49858;48.956;9.076;2023-01-31T09:51:32;99777.13;;;3.20;100.00
63715;BME280;49858;48.956;9.076;2023-01-31T09:54:01;99790.06;;;3.33;100.00
63715;BME280;49858;48.956;9.076;2023-01-31T09:56:37;99793.31;;;3.36;100.00
63715;BME280;49858;48.956;9.076;2023-01-31T09:59:13;99795.84;;;3.61;100.00
63715;BME280;49858;48.956;9.076;2023-01-31T10:01:51;99785.78;;;3.62;100.00
63715;BME280;49858;48.956;9.076;2023-01-31T10:04:38;99779.44;;;3.71;100.00
63715;BME280;49858;48.956;9.076;2023-01-31T10:07:13;99788.72;;;3.70;100.00
63715;BME280;49858;48.956;9.076;2023-01-31T10:09:45;99788.88;;;3.50;100.00
63715;BME280;49858;48.956;9.076;2023-01-31T10:12:17;99780.19;;;3.82;100.00
63715;BME280;49858;48.956;9.076;2023-01-31T10:14:49;99776.84;;;3.56;100.00
63715;BME280;49858;48.956;9.076;2023-01-31T10:17:22;99774.97;;;3.91;100.00
63715;BME280;49858;48.956;9.076;2023-01-31T10:19:57;99780.47;;;3.46;100.00
63715;BME280;49858;48.956;9.076;2023-01-31T10:22:32;99772.22;;;3.56;100.00
63715;BME280;49858;48.956;9.076;2023-01-31T10:25:07;99777.84;;;3.70;100.00
63715;BME280;49858;48.956;9.076;2023-01-31T10:27:46;99777.78;;;3.75;100.00
63715;BME280;49858;48.956;9.076;2023-01-31T10:30:17;99769.88;;;3.45;100.00
63715;BME280;49858;48.956;9.076;2023-01-31T10:32:50;99773.41;;;3.79;100.00
63715;BME280;49858;48.956;9.076;2023-01-31T10:35:25;99769.78;;;3.55;100.00
63715;BME280;49858;48.956;9.076;2023-01-31T10:38:02;99772.44;;;3.65;100.00
63715;BME280;49858;48.956;9.076;2023-01-31T10:40:36;99775.63;;;3.77;100.00
63715;BME280;49858;48.956;9.076;2023-01-31T10:43:11;99780.00;;;3.73;100.00
63715;BME280;49858;48.956;9.076;2023-01-31T10:45:42;99772.66;;;4.03;100.00
63715;BME280;49858;48.956;9.076;2023-01-31T10:48:15;99778.00;;;3.84;100.00
63715;BME280;49858;48.956;9.076;2023-01-31T10:50:51;99768.38;;;3.63;100.00
63715;BME280;49858;48.956;9.076;2023-01-31T10:53:50;99771.78;;;3.78;100.00
63715;BME280;49858;48.956;9.076;2023-01-31T10:56:27;99779.53;;;3.61;100.00
63715;BME280;49858;48.956;9.076;2023-01-31T10:59:01;99767.59;;;3.91;100.00
63715;BME280;49858;48.956;9.076;2023-01-31T11:01:33;99761.50;;;3.99;100.00
63715;BME280;49858;48.956;9.076;2023-01-31T11:04:18;99759.09;;;3.69;100.00
63715;BME280;49858;48.956;9.076;2023-01-31T11:06:49;99748.97;;;3.74;100.00
63715;BME280;49858;48.956;9.076;2023-01-31T11:09:18;99708.69;;;3.71;100.00
63715;BME280;49858;48.956;9.076;2023-01-31T11:11:54;99721.03;;;3.64;100.00
63715;BME280;49858;48.956;9.076;2023-01-31T11:14:22;99726.75;;;3.62;100.00
63715;BME280;49858;48.956;9.076;2023-01-31T11:16:57;99711.34;;;3.81;100.00
63715;BME280;49858;48.956;9.076;2023-01-31T11:19:33;99702.03;;;3.88;100.00
63715;BME280;49858;48.956;9.076;2023-01-31T11:22:03;99695.38;;;3.99;100.00
63715;BME280;49858;48.956;9.076;2023-01-31T11:24:33;99675.25;;;3.95;100.00
63715;BME280;49858;48.956;9.076;2023-01-31T11:27:05;99674.47;;;4.18;100.00
63715;BME280;49858;48.956;9.076;2023-01-31T11:29:37;99671.88;;;4.08;100.00
63715;BME280;49858;48.956;9.076;2023-01-31T11:32:14;99668.19;;;4.42;100.00
63715;BME280;49858;48.956;9.076;2023-01-31T11:34:56;99675.44;;;4.27;100.00
63715;BME280;49858;48.956;9.076;2023-01-31T11:37:25;99681.50;;;4.24;100.00
63715;BME280;49858;48.956;9.076;2023-01-31T11:39:56;99684.97;;;4.30;100.00
63715;BME280;49858;48.956;9.076;2023-01-31T11:42:24;99700.44;;;4.10;100.00
63715;BME280;49858;48.956;9.076;2023-01-31T11:44:54;99683.25;;;4.58;100.00
63715;BME280;49858;48.956;9.076;2023-01-31T11:47:26;99684.38;;;4.76;100.00
63715;BME280;49858;48.956;9.076;2023-01-31T11:49:56;99675.41;;;4.51;100.00
63715;BME280;49858;48.956;9.076;2023-01-31T11:52:28;99670.19;;;4.55;100.00
63715;BME280;49858;48.956;9.076;2023-01-31T11:54:58;99668.59;;;4.54;100.00
63715;BME280;49858;48.956;9.076;2023-01-31T11:57:29;99673.25;;;4.72;100.00
63715;BME280;49858;48.956;9.076;2023-01-31T12:00:00;99663.56;;;4.61;100.00
63715;BME280;49858;48.956;9.076;2023-01-31T12:02:36;99634.69;;;4.98;100.00
63715;BME280;49858;48.956;9.076;2023-01-31T12:05:12;99639.44;;;4.92;100.00
63715;BME280;49858;48.956;9.076;2023-01-31T12:07:42;99644.13;;;4.49;100.00
63715;BME280;49858;48.956;9.076;2023-01-31T12:10:25;99638.69;;;4.86;100.00
63715;BME280;49858;48.956;9.076;2023-01-31T12:12:57;99639.50;;;4.68;100.00
63715;BME280;49858;48.956;9.076;2023-01-31T12:15:50;99616.00;;;4.53;100.00
63715;BME280;49858;48.956;9.076;2023-01-31T12:18:31;99615.06;;;4.63;100.00
63715;BME280;49858;48.956;9.076;2023-01-31T12:21:08;99610.34;;;4.50;100.00
63715;BME280;49858;48.956;9.076;2023-01-31T12:23:51;99603.56;;;4.85;100.00
63715;BME280;49858;48.956;9.076;2023-01-31T12:26:29;99607.81;;;4.91;100.00
63715;BME280;49858;48.956;9.076;2023-01-31T12:29:13;99611.34;;;4.92;100.00
63715;BME280;49858;48.956;9.076;2023-01-31T12:31:56;99609.66;;;4.96;100.00
63715;BME280;49858;48.956;9.076;2023-01-31T12:34:37;99594.22;;;4.72;100.00
63715;BME280;49858;48.956;9.076;2023-01-31T12:37:37;99600.25;;;4.69;100.00
63715;BME280;49858;48.956;9.076;2023-01-31T12:40:21;99593.03;;;4.78;100.00
63715;BME280;49858;48.956;9.076;2023-01-31T12:42:58;99604.47;;;4.80;100.00
63715;BME280;49858;48.956;9.076;2023-01-31T12:45:37;99592.78;;;4.75;100.00
63715;BME280;49858;48.956;9.076;2023-01-31T12:48:29;99580.97;;;4.98;100.00
63715;BME280;49858;48.956;9.076;2023-01-31T12:51:07;99584.13;;;4.73;100.00
63715;BME280;49858;48.956;9.076;2023-01-31T12:53:54;99580.50;;;4.58;100.00
63715;BME280;49858;48.956;9.076;2023-01-31T12:56:44;99576.75;;;4.54;100.00
63715;BME280;49858;48.956;9.076;2023-01-31T12:59:24;99572.03;;;4.60;100.00
63715;BME280;49858;48.956;9.076;2023-01-31T13:01:59;99569.53;;;4.64;100.00
63715;BME280;49858;48.956;9.076;2023-01-31T13:04:37;99562.00;;;4.74;100.00
63715;BME280;49858;48.956;9.076;2023-01-31T13:07:13;99546.69;;;4.78;100.00
63715;BME280;49858;48.956;9.076;2023-01-31T13:09:44;99539.78;;;4.67;100.00
63715;BME280;49858;48.956;9.076;2023-01-31T13:12:15;99536.09;;;4.77;100.00
63715;BME280;49858;48.956;9.076;2023-01-31T13:14:49;99558.66;;;4.45;100.00
63715;BME280;49858;48.956;9.076;2023-01-31T13:17:22;99535.88;;;4.54;100.00
63715;BME280;49858;48.956;9.076;2023-01-31T13:19:53;99533.63;;;4.61;100.00
63715;BME280;49858;48.956;9.076;2023-01-31T13:22:25;99522.84;;;4.32;100.00
63715;BME280;49858;48.956;9.076;2023-01-31T13:24:59;99525.81;;;4.36;100.00
63715;BME280;49858;48.956;9.076;2023-01-31T13:27:32;99516.09;;;4.49;100.00
63715;BME280;49858;48.956;9.076;2023-01-31T13:30:10;99525.28;;;4.53;100.00
63715;BME280;49858;48.956;9.076;2023-01-31T13:32:45;99540.69;;;4.44;100.00